Time;durP1;ratioP1;P1;durP2;ratioP2;P2;SDS_P1;SDS_P2;PMS_P1;PMS_P2;Temp;Humidity;BMP_temperature;BMP_pressure;BME280_temperature;BME280_humidity;BME280_pressure;Samples;Min_cycle;Max_cycle;Signal;HPM_P1;HPM_P2
2021/08/30 00:00:31;;;;;;;0.00;0.00;;;17.60;63.70;;;;;;5059023;28;20210;-71
2021/08/30 00:02:59;;;;;;;0.10;0.10;;;17.60;64.00;;;;;;5062482;28;20209;-71
2021/08/30 00:05:26;;;;;;;0.10;0.10;;;17.60;64.80;;;;;;5079993;28;20247;-71
2021/08/30 00:07:53;;;;;;;0.10;0.10;;;17.60;63.90;;;;;;5078175;28;20201;-71
2021/08/30 00:10:21;;;;;;;0.10;0.10;;;17.60;63.90;;;;;;5082867;28;20329;-71
2021/08/30 00:12:48;;;;;;;0.00;0.00;;;17.60;63.90;;;;;;5101574;28;20304;-71
2021/08/30 00:15:15;;;;;;;0.00;0.00;;;17.60;63.90;;;;;;5083473;28;20639;-71
2021/08/30 00:17:43;;;;;;;0.10;0.10;;;17.60;63.80;;;;;;5084973;28;20244;-71
2021/08/30 00:20:14;;;;;;;0.10;0.10;;;17.60;63.90;;;;;;5066762;28;20220;-72
2021/08/30 00:22:42;;;;;;;0.00;0.00;;;17.60;64.60;;;;;;5083498;28;20209;-71
2021/08/30 00:25:09;;;;;;;0.10;0.10;;;17.50;64.70;;;;;;5082237;28;20218;-71
2021/08/30 00:27:37;;;;;;;0.17;0.17;;;17.50;65.00;;;;;;5086114;28;20213;-71
2021/08/30 00:30:07;;;;;;;0.10;0.10;;;17.40;65.50;;;;;;5078130;28;20210;-71
2021/08/30 00:32:34;;;;;;;0.07;0.07;;;17.40;65.40;;;;;;5067694;28;20649;-71
2021/08/30 00:35:02;;;;;;;0.00;0.00;;;17.40;66.10;;;;;;5083300;28;20222;-71
2021/08/30 00:37:29;;;;;;;0.10;0.10;;;17.40;65.90;;;;;;5084581;28;20240;-71
2021/08/30 00:39:56;;;;;;;0.00;0.00;;;17.30;65.90;;;;;;5083882;28;20238;-71
2021/08/30 00:42:23;;;;;;;1.80;0.77;;;17.30;66.20;;;;;;5083697;28;20253;-71
2021/08/30 00:44:52;;;;;;;0.00;0.00;;;17.30;66.40;;;;;;5081353;28;20202;-71
2021/08/30 00:47:21;;;;;;;0.10;0.10;;;17.30;66.70;;;;;;5084701;28;20227;-71
2021/08/30 00:49:49;;;;;;;0.10;0.10;;;17.20;66.60;;;;;;5082686;28;20300;-71
2021/08/30 00:52:17;;;;;;;0.00;0.00;;;17.20;66.80;;;;;;5085649;28;20247;-71
2021/08/30 00:54:44;;;;;;;0.10;0.10;;;17.20;67.00;;;;;;5078471;28;20213;-71
2021/08/30 00:57:12;;;;;;;0.10;0.10;;;17.10;66.90;;;;;;5084820;28;20225;-71
2021/08/30 00:59:41;;;;;;;0.00;0.00;;;17.10;67.00;;;;;;5081688;28;20623;-71
2021/08/30 01:02:09;;;;;;;0.00;0.00;;;17.20;67.10;;;;;;5064119;28;20297;-71
2021/08/30 01:04:39;;;;;;;0.10;0.10;;;17.20;67.20;;;;;;5082044;28;20237;-71
2021/08/30 01:07:43;;;;;;;0.10;0.10;;;17.20;67.20;;;;;;5084377;28;20213;-71
2021/08/30 01:10:51;;;;;;;0.10;0.10;;;17.20;67.20;;;;;;5010691;28;20475;-71
2021/08/30 01:13:52;;;;;;;0.10;0.10;;;17.10;67.20;;;;;;5066571;28;20238;-71
2021/08/30 01:16:20;;;;;;;0.00;0.00;;;17.10;67.40;;;;;;5080073;28;20567;-71
2021/08/30 01:18:51;;;;;;;0.00;0.00;;;17.00;67.40;;;;;;5085231;28;20237;-71
2021/08/30 01:21:22;;;;;;;0.10;0.10;;;17.00;67.70;;;;;;5044448;28;20252;-71
2021/08/30 01:24:10;;;;;;;0.10;0.10;;;17.00;67.80;;;;;;5084097;28;20651;-71
2021/08/30 01:26:45;;;;;;;0.10;0.10;;;17.00;68.00;;;;;;5057877;28;20207;-71
2021/08/30 01:29:30;;;;;;;0.00;0.00;;;17.00;68.20;;;;;;5083639;28;20230;-71
2021/08/30 01:32:32;;;;;;;0.10;0.10;;;17.00;68.00;;;;;;5078009;28;20250;-71
2021/08/30 01:35:02;;;;;;;0.10;0.10;;;17.00;68.00;;;;;;5096698;28;20209;-71
2021/08/30 01:37:31;;;;;;;0.10;0.10;;;17.00;68.10;;;;;;5082057;28;20259;-71
2021/08/30 01:40:00;;;;;;;0.00;0.00;;;16.90;68.10;;;;;;5084303;28;20213;-71
2021/08/30 01:42:29;;;;;;;0.00;0.00;;;16.80;68.30;;;;;;5080820;28;20237;-71
2021/08/30 01:44:57;;;;;;;0.00;0.00;;;16.80;68.40;;;;;;5078010;28;20594;-71
2021/08/30 01:47:26;;;;;;;0.10;0.10;;;16.80;68.60;;;;;;5083507;28;20232;-71
2021/08/30 01:50:01;;;;;;;0.10;0.10;;;16.80;68.70;;;;;;5082298;28;20217;-71
2021/08/30 01:52:34;;;;;;;0.00;0.00;;;16.80;69.00;;;;;;5081442;28;20226;-71
2021/08/30 01:55:14;;;;;;;0.00;0.00;;;16.70;69.50;;;;;;5085185;28;20591;-71
2021/08/30 02:00:44;;;;;;;0.27;0.27;;;16.50;68.60;;;;;;5076869;28;20216;-71
2021/08/30 02:03:16;;;;;;;0.10;0.10;;;16.40;68.90;;;;;;5083773;28;20220;-71
2021/08/30 02:05:46;;;;;;;0.10;0.10;;;16.30;69.20;;;;;;5057993;28;20221;-71
2021/08/30 02:08:18;;;;;;;0.00;0.00;;;16.30;69.40;;;;;;5045394;28;20267;-71
2021/08/30 02:10:47;;;;;;;0.10;0.10;;;16.20;69.50;;;;;;5062428;28;20598;-71
2021/08/30 02:13:15;;;;;;;0.00;0.00;;;16.30;70.00;;;;;;5063076;28;20222;-71
2021/08/30 02:15:43;;;;;;;0.00;0.00;;;16.30;70.30;;;;;;5060511;28;20639;-71
2021/08/30 02:18:28;;;;;;;0.10;0.10;;;16.30;70.40;;;;;;5063961;28;20233;-71
2021/08/30 02:21:23;;;;;;;0.10;0.10;;;16.30;70.50;;;;;;5060973;28;20202;-71
2021/08/30 02:24:02;;;;;;;0.00;0.00;;;16.30;70.70;;;;;;5061503;28;20655;-71
2021/08/30 02:27:02;;;;;;;0.00;0.00;;;16.30;70.50;;;;;;5024035;28;20230;-71
2021/08/30 02:29:38;;;;;;;0.10;0.10;;;16.30;70.40;;;;;;5017927;28;20217;-71
2021/08/30 02:32:07;;;;;;;0.00;0.00;;;16.20;70.50;;;;;;5061217;28;20554;-71
2021/08/30 02:34:36;;;;;;;0.10;0.10;;;16.20;70.70;;;;;;5059290;28;20252;-71
2021/08/30 02:37:06;;;;;;;0.00;0.00;;;16.10;71.10;;;;;;5055867;28;20234;-71
2021/08/30 02:39:35;;;;;;;0.00;0.00;;;16.10;71.90;;;;;;5063115;28;20621;-71
2021/08/30 02:42:05;;;;;;;0.10;0.10;;;16.00;71.50;;;;;;5061752;28;20222;-71
2021/08/30 02:44:33;;;;;;;0.10;0.10;;;16.00;71.80;;;;;;5062346;28;20210;-71
2021/08/30 02:47:01;;;;;;;0.10;0.10;;;16.00;71.90;;;;;;5060512;28;20221;-71
2021/08/30 02:49:29;;;;;;;0.10;0.10;;;16.00;71.90;;;;;;5062538;28;20217;-71
2021/08/30 02:52:04;;;;;;;0.00;0.00;;;16.00;72.00;;;;;;5042388;28;20276;-71
2021/08/30 02:54:35;;;;;;;0.00;0.00;;;16.00;72.00;;;;;;5057428;28;20218;-71
2021/08/30 02:57:05;;;;;;;0.00;0.00;;;16.00;72.00;;;;;;5061070;28;20229;-71
2021/08/30 02:59:33;;;;;;;0.10;0.10;;;16.00;72.10;;;;;;5059487;28;20214;-71
2021/08/30 03:02:02;;;;;;;0.00;0.00;;;16.00;72.40;;;;;;5056681;28;20216;-71
2021/08/30 03:04:32;;;;;;;0.10;0.10;;;16.00;72.90;;;;;;5070154;28;20246;-71
2021/08/30 03:07:00;;;;;;;0.10;0.10;;;15.90;72.90;;;;;;5075895;28;20636;-71
2021/08/30 03:09:28;;;;;;;0.10;0.10;;;15.80;73.20;;;;;;5082432;28;20212;-71
2021/08/30 03:11:57;;;;;;;0.47;0.47;;;15.70;73.70;;;;;;5078957;28;20205;-71
2021/08/30 03:14:26;;;;;;;0.00;0.00;;;15.70;74.40;;;;;;5076864;28;20206;-71
2021/08/30 03:16:58;;;;;;;0.10;0.10;;;15.70;75.20;;;;;;5080503;28;20213;-71
2021/08/30 03:19:28;;;;;;;0.10;0.10;;;15.80;75.30;;;;;;5080422;28;20209;-71
2021/08/30 03:21:56;;;;;;;0.00;0.00;;;15.80;75.10;;;;;;5075041;28;20210;-71
2021/08/30 03:24:24;;;;;;;0.10;0.10;;;15.90;74.80;;;;;;5082541;28;20212;-71
2021/08/30 03:26:53;;;;;;;0.10;0.10;;;15.90;74.60;;;;;;5079799;28;20827;-71
2021/08/30 03:29:21;;;;;;;0.00;0.00;;;15.90;74.50;;;;;;5081591;28;20217;-71
2021/08/30 03:31:50;;;;;;;0.10;0.10;;;15.90;74.40;;;;;;5080864;28;20264;-71
2021/08/30 03:34:20;;;;;;;0.00;0.00;;;15.90;74.40;;;;;;5063199;28;20209;-71
2021/08/30 03:36:48;;;;;;;0.10;0.10;;;15.90;74.40;;;;;;5082481;28;20256;-71
2021/08/30 03:39:17;;;;;;;0.00;0.00;;;15.90;75.20;;;;;;5062263;28;20248;-71
2021/08/30 03:41:45;;;;;;;0.00;0.00;;;15.90;74.60;;;;;;5079250;28;20210;-71
2021/08/30 03:44:12;;;;;;;0.10;0.10;;;15.90;74.80;;;;;;5086529;28;20610;-71
2021/08/30 03:46:40;;;;;;;0.00;0.00;;;15.80;74.90;;;;;;5083912;28;20609;-71
2021/08/30 03:49:08;;;;;;;0.10;0.10;;;15.80;74.90;;;;;;5085822;28;20217;-71
2021/08/30 03:51:36;;;;;;;0.07;0.07;;;15.90;75.10;;;;;;5084409;28;20228;-71
2021/08/30 03:54:04;;;;;;;0.10;0.10;;;15.80;75.10;;;;;;5084512;28;20715;-71
2021/08/30 03:56:31;;;;;;;0.00;0.00;;;15.80;75.20;;;;;;5085176;28;20278;-71
2021/08/30 03:59:00;;;;;;;0.10;0.10;;;15.80;75.50;;;;;;5083929;28;20237;-71
2021/08/30 04:01:29;;;;;;;0.10;0.10;;;15.70;75.30;;;;;;5082644;28;20656;-71
2021/08/30 04:04:00;;;;;;;0.00;0.00;;;15.80;75.50;;;;;;5079333;28;20241;-71
2021/08/30 04:06:31;;;;;;;0.10;0.10;;;15.70;75.90;;;;;;5085693;28;20201;-71
2021/08/30 04:08:59;;;;;;;0.00;0.00;;;15.70;76.10;;;;;;5063686;28;20210;-71
2021/08/30 04:11:27;;;;;;;0.10;0.10;;;15.70;76.20;;;;;;5067414;28;20286;-71
2021/08/30 04:13:55;;;;;;;0.00;0.00;;;15.70;76.20;;;;;;5068094;28;20224;-71
2021/08/30 04:16:22;;;;;;;0.00;0.00;;;15.70;76.10;;;;;;5082875;28;20209;-71
2021/08/30 04:18:49;;;;;;;0.10;0.10;;;15.70;76.00;;;;;;5086141;28;20570;-71
2021/08/30 04:21:16;;;;;;;0.10;0.10;;;15.70;75.90;;;;;;5082326;28;20535;-71
2021/08/30 04:23:44;;;;;;;0.17;0.17;;;15.80;75.90;;;;;;5078572;28;20298;-71
2021/08/30 04:26:11;;;;;;;0.10;0.10;;;15.80;75.80;;;;;;5082575;28;20217;-71
2021/08/30 04:28:38;;;;;;;0.20;0.20;;;15.70;75.80;;;;;;5085382;28;20312;-71
2021/08/30 04:31:05;;;;;;;0.00;0.00;;;15.70;75.80;;;;;;5080199;28;20217;-71
2021/08/30 04:33:32;;;;;;;0.00;0.00;;;15.70;75.80;;;;;;5084843;28;20225;-70
2021/08/30 04:35:59;;;;;;;0.00;0.00;;;15.70;76.00;;;;;;5083657;28;20267;-70
2021/08/30 04:38:26;;;;;;;0.10;0.10;;;15.60;76.10;;;;;;5083901;28;20233;-70
2021/08/30 04:40:53;;;;;;;0.10;0.10;;;15.60;76.20;;;;;;5075249;28;20244;-70
2021/08/30 04:43:20;;;;;;;0.10;0.10;;;15.60;76.50;;;;;;5083385;28;20228;-70
2021/08/30 04:45:47;;;;;;;0.10;0.10;;;15.60;76.40;;;;;;5084693;28;20240;-70
2021/08/30 04:48:14;;;;;;;0.10;0.10;;;15.50;76.50;;;;;;5065226;28;20533;-70
2021/08/30 04:50:42;;;;;;;0.00;0.00;;;15.40;76.50;;;;;;5084677;28;20259;-70
2021/08/30 04:53:10;;;;;;;0.00;0.00;;;15.40;76.80;;;;;;5077995;28;20225;-71
2021/08/30 04:55:38;;;;;;;0.10;0.10;;;15.40;76.70;;;;;;5085220;28;20221;-70
2021/08/30 04:58:07;;;;;;;1.60;1.37;;;15.50;76.60;;;;;;5082689;28;20297;-70
2021/08/30 05:00:35;;;;;;;0.10;0.10;;;15.50;76.60;;;;;;5081265;28;20205;-70
2021/08/30 05:03:03;;;;;;;0.10;0.10;;;15.50;76.40;;;;;;5083781;28;20272;-70
2021/08/30 05:05:30;;;;;;;0.00;0.00;;;15.60;76.30;;;;;;5082753;28;20324;-70
2021/08/30 05:07:58;;;;;;;0.00;0.00;;;15.70;76.30;;;;;;5084670;28;20221;-70
2021/08/30 05:10:25;;;;;;;0.00;0.00;;;15.70;76.20;;;;;;5081957;28;20263;-70
2021/08/30 05:12:52;;;;;;;0.10;0.10;;;15.70;76.10;;;;;;5067629;28;20275;-70
2021/08/30 05:15:20;;;;;;;0.00;0.00;;;15.80;76.00;;;;;;5085330;28;20221;-70
2021/08/30 05:17:49;;;;;;;0.83;0.50;;;15.80;75.90;;;;;;5081899;28;20513;-70
2021/08/30 05:20:16;;;;;;;0.10;0.10;;;15.90;75.70;;;;;;5073175;28;20232;-70
2021/08/30 05:22:45;;;;;;;0.00;0.00;;;16.10;75.70;;;;;;5084401;28;20208;-70
2021/08/30 05:25:13;;;;;;;0.10;0.10;;;16.40;75.20;;;;;;5083257;28;20214;-70
2021/08/30 05:27:41;;;;;;;0.10;0.10;;;16.80;74.50;;;;;;5082932;28;20235;-70
2021/08/30 05:30:09;;;;;;;0.10;0.10;;;17.20;73.50;;;;;;5072930;28;20206;-70
2021/08/30 05:32:36;;;;;;;0.10;0.10;;;17.60;72.70;;;;;;5082236;28;20659;-70
2021/08/30 05:35:03;;;;;;;0.10;0.10;;;17.90;71.60;;;;;;5084336;28;20213;-70
2021/08/30 05:37:30;;;;;;;0.00;0.00;;;18.10;70.80;;;;;;5081186;28;20240;-70
2021/08/30 05:39:57;;;;;;;0.03;0.03;;;18.20;70.20;;;;;;5075643;28;20283;-70
2021/08/30 05:42:24;;;;;;;0.10;0.10;;;18.20;70.20;;;;;;5080848;28;20272;-70
2021/08/30 05:44:51;;;;;;;0.10;0.10;;;18.20;70.40;;;;;;5084412;28;20208;-70
2021/08/30 05:47:18;;;;;;;2.07;1.30;;;18.20;70.70;;;;;;5081448;28;20290;-70
2021/08/30 05:49:45;;;;;;;0.10;0.10;;;18.20;70.70;;;;;;5083791;28;20349;-70
2021/08/30 05:52:13;;;;;;;0.00;0.00;;;18.20;70.50;;;;;;5064352;28;20798;-70
2021/08/30 05:54:40;;;;;;;0.10;0.10;;;18.20;70.70;;;;;;5080923;28;20279;-70
2021/08/30 05:57:07;;;;;;;0.10;0.10;;;18.30;70.80;;;;;;5082428;28;20209;-70
2021/08/30 05:59:36;;;;;;;0.10;0.10;;;18.40;70.80;;;;;;5073672;28;20233;-71
2021/08/30 06:02:03;;;;;;;0.00;0.00;;;18.50;70.70;;;;;;5080796;28;20210;-71
2021/08/30 06:04:31;;;;;;;0.77;0.77;;;18.70;70.70;;;;;;5083708;28;20294;-71
2021/08/30 06:06:58;;;;;;;0.10;0.10;;;18.80;70.60;;;;;;5080114;28;20267;-71
2021/08/30 06:09:25;;;;;;;0.20;0.20;;;19.00;70.80;;;;;;5059029;28;20282;-71
2021/08/30 06:11:52;;;;;;;0.00;0.00;;;19.20;70.70;;;;;;5072192;28;20214;-71
2021/08/30 06:14:19;;;;;;;0.10;0.10;;;19.40;70.10;;;;;;5083576;28;20641;-71
2021/08/30 06:16:46;;;;;;;0.00;0.00;;;19.70;69.60;;;;;;5081194;28;20320;-71
2021/08/30 06:19:13;;;;;;;0.00;0.00;;;19.90;69.10;;;;;;5082883;28;20624;-71
2021/08/30 06:21:41;;;;;;;0.00;0.00;;;20.10;68.60;;;;;;5081471;28;20296;-71
2021/08/30 06:24:08;;;;;;;1.00;0.93;;;20.30;68.30;;;;;;5084202;28;20209;-71
2021/08/30 06:26:37;;;;;;;0.00;0.00;;;20.30;68.10;;;;;;5081557;28;20205;-71
2021/08/30 06:29:04;;;;;;;0.00;0.00;;;20.40;68.00;;;;;;5083055;28;20270;-71
2021/08/30 06:31:32;;;;;;;0.10;0.10;;;20.60;67.30;;;;;;5079693;28;20213;-71
2021/08/30 06:33:59;;;;;;;0.10;0.10;;;20.70;66.80;;;;;;5083952;28;20271;-70
2021/08/30 06:36:26;;;;;;;0.00;0.00;;;20.80;66.50;;;;;;5058366;28;20675;-71
2021/08/30 06:38:53;;;;;;;0.00;0.00;;;20.80;66.20;;;;;;5083435;28;20229;-71
2021/08/30 06:41:22;;;;;;;0.10;0.10;;;20.70;65.90;;;;;;5080347;28;20217;-71
2021/08/30 06:43:50;;;;;;;0.00;0.00;;;20.60;66.20;;;;;;5082922;28;20448;-71
2021/08/30 06:46:17;;;;;;;0.10;0.10;;;20.60;66.40;;;;;;5081379;28;20643;-71
2021/08/30 06:48:44;;;;;;;0.10;0.10;;;20.60;66.50;;;;;;5081696;28;20219;-71
2021/08/30 06:51:11;;;;;;;0.00;0.00;;;20.70;66.20;;;;;;5081770;28;20217;-71
2021/08/30 06:53:39;;;;;;;0.10;0.10;;;20.80;66.10;;;;;;5081009;28;20221;-70
2021/08/30 06:56:06;;;;;;;0.00;0.00;;;20.90;66.10;;;;;;5082279;28;20217;-72
2021/08/30 06:58:33;;;;;;;0.10;0.10;;;21.00;65.70;;;;;;5080164;28;20325;-71
2021/08/30 07:01:00;;;;;;;0.10;0.10;;;21.00;65.70;;;;;;5083087;28;20653;-70
2021/08/30 07:03:27;;;;;;;0.10;0.10;;;21.00;65.70;;;;;;5079623;28;20210;-71
2021/08/30 07:05:55;;;;;;;0.10;0.10;;;21.10;65.80;;;;;;5082927;28;20627;-70
2021/08/30 07:08:22;;;;;;;0.00;0.00;;;21.20;65.80;;;;;;5080173;28;20573;-69
2021/08/30 07:10:49;;;;;;;0.00;0.00;;;21.50;65.50;;;;;;5060424;28;20209;-73
2021/08/30 07:13:16;;;;;;;0.10;0.10;;;21.70;64.80;;;;;;5064576;28;20201;-72
2021/08/30 07:15:43;;;;;;;0.00;0.00;;;21.80;64.60;;;;;;5080127;28;20217;-71
2021/08/30 07:18:10;;;;;;;0.00;0.00;;;21.80;64.30;;;;;;5063864;28;20675;-70
2021/08/30 07:20:37;;;;;;;0.00;0.00;;;21.90;64.10;;;;;;5081195;28;20278;-71
2021/08/30 07:23:04;;;;;;;0.00;0.00;;;21.90;64.20;;;;;;5081037;28;20205;-71
2021/08/30 07:25:30;;;;;;;0.00;0.00;;;21.90;64.00;;;;;;5081742;28;20329;-71
2021/08/30 07:27:57;;;;;;;0.20;0.20;;;21.90;63.70;;;;;;5080740;28;20517;-70
2021/08/30 07:30:25;;;;;;;0.00;0.00;;;21.90;63.80;;;;;;5076118;28;20595;-70
2021/08/30 07:32:52;;;;;;;0.00;0.00;;;22.00;63.80;;;;;;5079708;28;20213;-71
2021/08/30 07:35:21;;;;;;;0.00;0.00;;;22.10;63.60;;;;;;5075023;28;20636;-71
2021/08/30 07:37:48;;;;;;;12.13;0.97;;;22.20;63.30;;;;;;5082714;28;20212;-71
2021/08/30 07:40:15;;;;;;;0.07;0.07;;;22.40;62.60;;;;;;5079967;28;20230;-72
2021/08/30 07:42:43;;;;;;;0.00;0.00;;;22.70;61.80;;;;;;5081738;28;20569;-73
2021/08/30 07:45:10;;;;;;;0.00;0.00;;;22.90;59.80;;;;;;5071940;28;20308;-72
2021/08/30 07:47:37;;;;;;;0.03;0.03;;;23.10;59.40;;;;;;5081003;28;20274;-71
2021/08/30 07:50:05;;;;;;;0.10;0.10;;;23.20;59.10;;;;;;5081479;28;20218;-70
2021/08/30 07:52:33;;;;;;;0.00;0.00;;;23.60;58.80;;;;;;5062440;28;20308;-70
2021/08/30 07:55:00;;;;;;;0.10;0.10;;;23.90;58.20;;;;;;5082159;28;20409;-71
2021/08/30 07:57:27;;;;;;;0.00;0.00;;;24.20;57.60;;;;;;5079330;28;20226;-70
2021/08/30 07:59:54;;;;;;;0.10;0.10;;;24.50;56.70;;;;;;5078759;28;20610;-72
2021/08/30 08:02:21;;;;;;;0.00;0.00;;;24.70;55.10;;;;;;5057488;28;20293;-72
2021/08/30 08:04:48;;;;;;;0.00;0.00;;;24.70;53.80;;;;;;5082490;28;20241;-73
2021/08/30 08:07:15;;;;;;;0.10;0.10;;;24.60;54.00;;;;;;5079552;28;20210;-73
2021/08/30 08:09:42;;;;;;;0.10;0.10;;;24.60;54.00;;;;;;5081388;28;20206;-73
2021/08/30 08:12:09;;;;;;;0.10;0.10;;;24.60;53.70;;;;;;5061154;28;20263;-73
2021/08/30 08:14:36;;;;;;;0.00;0.00;;;24.70;53.70;;;;;;5081275;28;20221;-73
2021/08/30 08:17:03;;;;;;;0.10;0.10;;;24.70;52.20;;;;;;5080322;28;20214;-73
2021/08/30 08:19:30;;;;;;;0.10;0.10;;;24.60;52.80;;;;;;5080750;28;20302;-73
2021/08/30 08:21:57;;;;;;;0.00;0.00;;;24.70;51.70;;;;;;5081167;28;20727;-73
2021/08/30 08:24:24;;;;;;;0.10;0.10;;;24.80;50.50;;;;;;5080043;28;20263;-73
2021/08/30 08:26:53;;;;;;;0.07;0.07;;;24.90;50.10;;;;;;5084475;28;20305;-73
2021/08/30 08:29:20;;;;;;;0.00;0.00;;;25.00;49.80;;;;;;5082673;28;20631;-73
2021/08/30 08:31:47;;;;;;;0.10;0.10;;;25.00;49.70;;;;;;5082031;28;20694;-73
2021/08/30 08:34:15;;;;;;;0.00;0.00;;;24.90;49.90;;;;;;5086100;28;20220;-73
2021/08/30 08:36:42;;;;;;;0.10;0.10;;;25.10;50.30;;;;;;5082530;28;20221;-74
2021/08/30 08:39:10;;;;;;;0.00;0.00;;;25.50;49.90;;;;;;5100883;28;20658;-74
2021/08/30 08:41:37;;;;;;;0.00;0.00;;;25.80;49.20;;;;;;5083619;28;20206;-74
2021/08/30 08:44:07;;;;;;;0.10;0.10;;;25.90;47.40;;;;;;5084449;28;20213;-74
2021/08/30 08:46:36;;;;;;;0.10;0.10;;;25.80;48.20;;;;;;5066866;28;20259;-74
2021/08/30 08:49:05;;;;;;;0.00;0.00;;;25.80;48.90;;;;;;5082847;28;20213;-74
2021/08/30 08:51:33;;;;;;;0.00;0.00;;;25.80;49.10;;;;;;5085394;28;20267;-74
2021/08/30 08:54:01;;;;;;;0.07;0.07;;;26.10;49.00;;;;;;5078248;28;20218;-73
2021/08/30 08:56:28;;;;;;;0.00;0.00;;;26.20;48.90;;;;;;5085048;28;20217;-73
2021/08/30 08:58:55;;;;;;;0.00;0.00;;;26.30;48.70;;;;;;5082720;28;20260;-73
2021/08/30 09:01:25;;;;;;;0.00;0.00;;;26.40;47.90;;;;;;5082682;28;20213;-73
2021/08/30 09:03:56;;;;;;;0.10;0.10;;;26.60;48.20;;;;;;5065809;28;20689;-74
2021/08/30 09:06:39;;;;;;;0.43;0.43;;;26.80;47.90;;;;;;5065269;28;20219;-73
2021/08/30 09:09:13;;;;;;;0.00;0.00;;;27.00;47.20;;;;;;5082294;28;20200;-73
2021/08/30 09:11:43;;;;;;;0.10;0.10;;;27.30;47.10;;;;;;5065120;28;20362;-73
2021/08/30 09:14:20;;;;;;;0.00;0.00;;;27.40;45.40;;;;;;5085193;28;20277;-73
2021/08/30 09:16:48;;;;;;;0.17;0.17;;;27.40;46.00;;;;;;5058724;28;20268;-73
2021/08/30 09:19:17;;;;;;;0.00;0.00;;;27.50;45.30;;;;;;5084117;28;20258;-72
2021/08/30 09:21:47;;;;;;;0.10;0.10;;;27.60;44.90;;;;;;5082908;28;20635;-72
2021/08/30 09:24:25;;;;;;;0.00;0.00;;;27.60;44.20;;;;;;5082691;28;20216;-71
2021/08/30 09:26:56;;;;;;;0.00;0.00;;;27.60;43.60;;;;;;5060497;28;20313;-71
2021/08/30 09:29:30;;;;;;;0.00;0.00;;;27.80;44.10;;;;;;5083348;28;20638;-72
2021/08/30 09:32:19;;;;;;;0.10;0.10;;;28.00;44.10;;;;;;5083833;28;20213;-72
2021/08/30 09:34:57;;;;;;;0.20;0.20;;;28.30;43.60;;;;;;5081158;28;20213;-72
2021/08/30 09:37:26;;;;;;;0.00;0.00;;;28.40;42.40;;;;;;5080310;28;20654;-72
2021/08/30 09:39:58;;;;;;;0.00;0.00;;;28.40;42.70;;;;;;5077621;28;20235;-72
2021/08/30 09:42:27;;;;;;;0.10;0.10;;;28.60;43.00;;;;;;5083751;28;20228;-72
2021/08/30 09:45:05;;;;;;;0.00;0.00;;;28.80;42.90;;;;;;5082928;28;20292;-74
2021/08/30 09:47:32;;;;;;;0.07;0.07;;;29.10;42.70;;;;;;5063354;28;20225;-71
2021/08/30 09:49:59;;;;;;;0.00;0.00;;;29.40;42.10;;;;;;5077334;28;20600;-72
2021/08/30 09:52:26;;;;;;;0.00;0.00;;;29.60;42.10;;;;;;5066797;28;20220;-74
2021/08/30 09:54:53;;;;;;;0.00;0.00;;;29.80;41.70;;;;;;5081564;28;20217;-73
2021/08/30 09:57:23;;;;;;;0.10;0.10;;;29.90;41.40;;;;;;5080423;28;20693;-73
2021/08/30 09:59:53;;;;;;;0.07;0.07;;;29.90;41.00;;;;;;5080783;28;20292;-73
2021/08/30 10:02:21;;;;;;;0.00;0.00;;;30.00;40.70;;;;;;5081908;28;20262;-73
2021/08/30 10:04:48;;;;;;;0.10;0.10;;;30.00;40.00;;;;;;5083096;28;20248;-73
2021/08/30 10:07:17;;;;;;;0.00;0.00;;;29.90;39.00;;;;;;5080949;28;20271;-74
2021/08/30 10:09:47;;;;;;;0.00;0.00;;;29.90;39.80;;;;;;5081205;28;20225;-73
2021/08/30 10:12:14;;;;;;;0.00;0.00;;;30.00;39.70;;;;;;5079184;28;20623;-72
2021/08/30 10:14:42;;;;;;;0.00;0.00;;;30.20;39.60;;;;;;5081125;28;20665;-72
2021/08/30 10:17:09;;;;;;;0.00;0.00;;;30.20;38.10;;;;;;5083007;28;20217;-74
2021/08/30 10:19:40;;;;;;;0.20;0.20;;;30.20;38.70;;;;;;5064059;28;20245;-72
2021/08/30 10:22:19;;;;;;;0.00;0.00;;;30.40;38.70;;;;;;5081816;28;20224;-74
2021/08/30 10:24:47;;;;;;;0.10;0.10;;;30.60;38.40;;;;;;5076920;28;20202;-73
2021/08/30 10:27:26;;;;;;;0.10;0.10;;;30.70;38.30;;;;;;5083361;28;20454;-72
2021/08/30 10:30:05;;;;;;;0.10;0.10;;;31.00;38.00;;;;;;5080072;28;20590;-73
2021/08/30 10:32:43;;;;;;;0.00;0.00;;;30.90;35.80;;;;;;5076839;28;20279;-73
2021/08/30 10:35:15;;;;;;;0.00;0.00;;;30.60;36.80;;;;;;5063837;28;20216;-73
2021/08/30 10:38:00;;;;;;;0.00;0.00;;;30.50;37.20;;;;;;5083461;28;20634;-74
2021/08/30 10:40:33;;;;;;;0.00;0.00;;;30.60;36.50;;;;;;5062442;28;20234;-73
2021/08/30 10:43:00;;;;;;;0.07;0.07;;;30.80;36.90;;;;;;5080494;28;20206;-72
2021/08/30 10:45:36;;;;;;;0.00;0.00;;;31.10;36.70;;;;;;5083388;28;20300;-72
2021/08/30 10:48:09;;;;;;;0.00;0.00;;;31.30;35.80;;;;;;5078586;28;20214;-72
2021/08/30 10:50:57;;;;;;;0.57;0.57;;;31.50;36.30;;;;;;5081009;28;20285;-71
2021/08/30 10:53:25;;;;;;;0.00;0.00;;;31.80;35.60;;;;;;5078840;28;20271;-72
2021/08/30 10:55:54;;;;;;;0.00;0.00;;;31.90;35.60;;;;;;5063746;28;20236;-73
2021/08/30 10:58:25;;;;;;;0.00;0.00;;;31.70;34.10;;;;;;5082501;28;20223;-72
2021/08/30 11:00:54;;;;;;;0.00;0.00;;;31.60;34.70;;;;;;5059197;28;20263;-72
2021/08/30 11:03:30;;;;;;;0.30;0.30;;;31.40;35.30;;;;;;5075559;28;20554;-73
2021/08/30 11:06:12;;;;;;;0.10;0.10;;;31.20;35.80;;;;;;5081754;28;20212;-73
2021/08/30 11:08:41;;;;;;;0.00;0.00;;;30.80;36.40;;;;;;5063589;28;20570;-73
2021/08/30 11:11:14;;;;;;;0.00;0.00;;;30.50;36.80;;;;;;5076542;28;20213;-73
2021/08/30 11:14:07;;;;;;;0.00;0.00;;;30.20;37.10;;;;;;5064121;28;20213;-73
2021/08/30 11:16:36;;;;;;;0.10;0.10;;;29.90;37.50;;;;;;5078552;28;20210;-74
2021/08/30 11:19:09;;;;;;;0.00;0.00;;;29.70;37.60;;;;;;5081412;28;20278;-73
2021/08/30 11:21:54;;;;;;;0.00;0.00;;;29.60;37.90;;;;;;5082335;28;20220;-74
2021/08/30 11:24:22;;;;;;;0.00;0.00;;;29.50;37.90;;;;;;5079869;28;20201;-72
2021/08/30 11:26:50;;;;;;;0.00;0.00;;;29.40;37.90;;;;;;5080828;28;20239;-73
2021/08/30 11:29:17;;;;;;;0.00;0.00;;;29.30;37.90;;;;;;5080848;28;20266;-73
2021/08/30 11:31:44;;;;;;;0.00;0.00;;;29.20;37.70;;;;;;5079385;28;20209;-73
2021/08/30 11:34:23;;;;;;;0.00;0.00;;;29.20;37.70;;;;;;5083050;28;20274;-74
2021/08/30 11:36:51;;;;;;;0.10;0.10;;;29.20;37.50;;;;;;5077989;28;20232;-73
2021/08/30 11:39:20;;;;;;;0.00;0.00;;;29.20;36.80;;;;;;5081527;28;20228;-73
2021/08/30 11:41:52;;;;;;;0.10;0.10;;;29.10;36.30;;;;;;5063974;28;20259;-74
2021/08/30 11:44:20;;;;;;;0.00;0.00;;;29.00;36.10;;;;;;5062107;28;20270;-73
2021/08/30 11:46:55;;;;;;;0.10;0.10;;;28.90;36.40;;;;;;5083320;28;20452;-74
2021/08/30 11:49:28;;;;;;;0.00;0.00;;;28.90;36.90;;;;;;5077819;28;20219;-73
2021/08/30 11:51:59;;;;;;;0.00;0.00;;;28.90;37.10;;;;;;5063013;28;20291;-72
2021/08/30 11:54:27;;;;;;;0.07;0.07;;;28.90;37.10;;;;;;5082557;28;20292;-73
2021/08/30 11:57:03;;;;;;;0.00;0.00;;;29.00;36.80;;;;;;5078760;28;20268;-73
2021/08/30 11:59:34;;;;;;;0.00;0.00;;;29.20;36.80;;;;;;5076810;28;20698;-74
2021/08/30 12:02:03;;;;;;;0.00;0.00;;;29.40;36.10;;;;;;5084152;28;20515;-75
2021/08/30 12:04:33;;;;;;;0.23;0.23;;;29.70;36.30;;;;;;5083866;28;20247;-75
2021/08/30 12:07:04;;;;;;;0.00;0.00;;;30.00;34.60;;;;;;5077104;28;20209;-75
2021/08/30 12:09:47;;;;;;;0.70;0.70;;;30.20;33.70;;;;;;5065880;28;20267;-76
2021/08/30 12:12:28;;;;;;;0.00;0.00;;;30.20;33.30;;;;;;5083814;28;20214;-75
2021/08/30 12:15:01;;;;;;;0.00;0.00;;;30.20;33.50;;;;;;5080911;28;20580;-75
2021/08/30 12:17:32;;;;;;;0.00;0.00;;;30.30;33.00;;;;;;5084437;28;20217;-75
2021/08/30 12:20:06;;;;;;;0.00;0.00;;;30.30;33.10;;;;;;5076816;28;20248;-75
2021/08/30 12:22:39;;;;;;;0.00;0.00;;;30.40;33.50;;;;;;5079132;28;20225;-75
2021/08/30 12:25:23;;;;;;;0.00;0.00;;;30.60;33.40;;;;;;5085101;28;20312;-75
2021/08/30 12:27:54;;;;;;;0.00;0.00;;;31.00;33.20;;;;;;5061015;28;20214;-75
2021/08/30 12:30:33;;;;;;;0.00;0.00;;;31.30;33.00;;;;;;5066769;28;20224;-75
2021/08/30 12:33:21;;;;;;;0.00;0.00;;;31.50;32.60;;;;;;5068029;28;20213;-75
2021/08/30 12:35:55;;;;;;;0.00;0.00;;;31.40;32.20;;;;;;5082612;28;20217;-75
2021/08/30 12:38:24;;;;;;;0.00;0.00;;;31.50;32.70;;;;;;5083300;28;20228;-75
2021/08/30 12:40:55;;;;;;;0.10;0.10;;;31.70;32.40;;;;;;5078309;28;20242;-75
2021/08/30 12:43:23;;;;;;;0.00;0.00;;;31.60;32.40;;;;;;5085664;28;20213;-75
2021/08/30 12:45:52;;;;;;;0.00;0.00;;;31.40;32.60;;;;;;5083215;28;20216;-75
2021/08/30 12:48:19;;;;;;;0.43;0.43;;;31.30;33.00;;;;;;5084376;28;20277;-75
2021/08/30 12:50:47;;;;;;;0.00;0.00;;;31.30;32.60;;;;;;5085800;28;20232;-75
2021/08/30 12:53:14;;;;;;;0.00;0.00;;;31.10;32.90;;;;;;5083474;28;20602;-75
2021/08/30 12:55:42;;;;;;;0.00;0.00;;;30.90;33.50;;;;;;5067305;28;20213;-75
2021/08/30 12:58:09;;;;;;;0.00;0.00;;;30.90;33.20;;;;;;5082788;28;20274;-75
2021/08/30 13:00:37;;;;;;;0.00;0.00;;;30.80;33.60;;;;;;5064930;28;20234;-75
2021/08/30 13:03:09;;;;;;;0.10;0.10;;;30.70;33.60;;;;;;5065572;28;20206;-74
2021/08/30 13:05:39;;;;;;;0.00;0.00;;;30.60;33.90;;;;;;5084695;28;20575;-75